Time;durP1;ratioP1;P1;durP2;ratioP2;P2;SDS_P1;SDS_P2;PMS_P1;PMS_P2;Temp;Humidity;BMP_temperature;BMP_pressure;BME280_temperature;BME280_humidity;BME280_pressure;Samples;Min_cycle;Max_cycle;Signal;HPM_P1;HPM_P2
2022/04/05 00:00:43;;;;;;;1.33;1.23;;;22.90;50.80;;;;;;5073367;28;20532;-93
2022/04/05 00:03:10;;;;;;;1.50;1.40;;;22.80;50.80;;;;;;5074033;28;20441;-93
2022/04/05 00:05:37;;;;;;;1.33;1.23;;;22.80;50.80;;;;;;5073504;28;20451;-93
2022/04/05 00:08:05;;;;;;;1.30;1.20;;;22.80;50.80;;;;;;5073404;28;20529;-93
2022/04/05 00:10:32;;;;;;;1.30;1.20;;;22.80;50.80;;;;;;5073176;28;20878;-93
2022/04/05 00:12:59;;;;;;;1.30;1.20;;;22.80;50.80;;;;;;5074557;28;20852;-93
2022/04/05 00:15:27;;;;;;;1.40;1.30;;;22.80;50.80;;;;;;5077290;28;20533;-93
2022/04/05 00:17:54;;;;;;;1.23;1.13;;;22.80;50.80;;;;;;5077059;28;21061;-92
2022/04/05 00:20:21;;;;;;;1.17;1.07;;;22.80;50.80;;;;;;5077418;28;20452;-92
2022/04/05 00:22:48;;;;;;;1.33;1.23;;;22.80;50.80;;;;;;5076985;28;20931;-93
2022/04/05 00:25:21;;;;;;;1.27;1.17;;;22.80;50.80;;;;;;5077267;28;20445;-93
2022/04/05 00:27:48;;;;;;;1.10;0.97;;;22.80;50.80;;;;;;5077146;28;20485;-92
2022/04/05 00:30:15;;;;;;;1.20;1.10;;;22.80;50.80;;;;;;5077681;28;20805;-92
2022/04/05 00:32:43;;;;;;;1.50;1.40;;;22.80;50.80;;;;;;5076808;28;20472;-92
2022/04/05 00:35:11;;;;;;;1.20;1.10;;;22.80;50.80;;;;;;5077123;28;20536;-93
2022/04/05 00:37:38;;;;;;;1.27;1.17;;;22.80;50.80;;;;;;5076843;28;20451;-93
2022/04/05 00:40:07;;;;;;;1.20;1.10;;;22.80;50.80;;;;;;5077091;28;20810;-93
2022/04/05 00:42:36;;;;;;;1.23;1.13;;;22.80;50.80;;;;;;5076554;28;20519;-92
2022/04/05 00:45:03;;;;;;;1.30;1.20;;;22.80;50.80;;;;;;5076793;28;20444;-93
2022/04/05 00:47:30;;;;;;;1.20;1.10;;;22.80;50.80;;;;;;5076486;28;20869;-93
2022/04/05 00:49:59;;;;;;;1.20;1.10;;;22.80;50.80;;;;;;5076344;28;20535;-93
2022/04/05 00:52:27;;;;;;;1.10;1.00;;;22.80;50.80;;;;;;5076430;28;20449;-93
2022/04/05 00:54:55;;;;;;;1.30;1.20;;;22.70;50.70;;;;;;5076596;28;20484;-93
2022/04/05 00:57:24;;;;;;;1.30;1.20;;;22.80;50.80;;;;;;5076966;28;20483;-93
2022/04/05 00:59:55;;;;;;;1.20;1.10;;;22.70;50.80;;;;;;5076559;28;20433;-92
2022/04/05 01:02:23;;;;;;;1.33;1.23;;;22.70;50.80;;;;;;5076726;28;20465;-93
2022/04/05 01:04:50;;;;;;;1.20;1.10;;;22.70;50.80;;;;;;5076388;28;20437;-93
2022/04/05 01:07:22;;;;;;;1.00;0.90;;;22.70;50.80;;;;;;5076199;28;20437;-93
2022/04/05 01:09:53;;;;;;;1.40;1.30;;;22.70;50.80;;;;;;5076917;28;20492;-90
2022/04/05 01:12:21;;;;;;;1.20;1.07;;;22.70;50.80;;;;;;5075866;28;20449;-92
2022/04/05 01:14:48;;;;;;;1.00;0.90;;;22.70;50.80;;;;;;5076082;28;20445;-91
2022/04/05 01:17:16;;;;;;;1.33;1.23;;;22.70;50.80;;;;;;5075963;28;20440;-92
2022/04/05 01:19:43;;;;;;;1.40;1.30;;;22.70;50.80;;;;;;5075944;28;20465;-92
2022/04/05 01:22:11;;;;;;;1.20;1.10;;;22.70;50.70;;;;;;5075843;28;20472;-91
2022/04/05 01:24:39;;;;;;;1.60;1.10;;;22.70;50.80;;;;;;5075813;28;20444;-92
2022/04/05 01:27:07;;;;;;;1.20;1.10;;;22.70;50.80;;;;;;5076050;28;20467;-92
2022/04/05 01:29:35;;;;;;;1.20;1.10;;;22.70;50.80;;;;;;5076266;28;20445;-92
2022/04/05 01:32:06;;;;;;;1.20;1.10;;;22.70;50.80;;;;;;5075600;28;20429;-92
2022/04/05 01:34:34;;;;;;;1.13;1.03;;;22.70;50.80;;;;;;5075724;28;20493;-92
2022/04/05 01:37:03;;;;;;;1.20;1.03;;;22.70;50.80;;;;;;5075690;28;20448;-92
2022/04/05 01:39:32;;;;;;;1.00;0.90;;;22.60;50.70;;;;;;5075720;28;20441;-92
2022/04/05 01:42:02;;;;;;;1.20;1.10;;;22.70;50.80;;;;;;5075370;28;20451;-92
2022/04/05 01:44:31;;;;;;;1.10;1.00;;;22.70;50.80;;;;;;5075780;28;20984;-92
2022/04/05 01:46:58;;;;;;;1.20;1.10;;;22.70;51.40;;;;;;5075380;28;20443;-92
2022/04/05 01:49:25;;;;;;;1.23;1.13;;;22.70;50.80;;;;;;5075634;28;20437;-92
2022/04/05 01:51:52;;;;;;;1.20;1.10;;;22.70;50.80;;;;;;5075204;28;20464;-93
2022/04/05 01:54:19;;;;;;;1.20;1.03;;;22.70;50.80;;;;;;5075190;28;21082;-92
2022/04/05 01:56:48;;;;;;;1.00;0.90;;;22.70;50.80;;;;;;5075204;28;21019;-92
2022/04/05 01:59:20;;;;;;;1.00;0.90;;;22.70;50.80;;;;;;5075101;28;20441;-92
2022/04/05 02:01:47;;;;;;;1.00;0.90;;;22.70;50.90;;;;;;5075162;28;20476;-92
2022/04/05 02:04:15;;;;;;;1.10;1.00;;;22.60;50.80;;;;;;5074841;28;20512;-92
2022/04/05 02:06:42;;;;;;;1.23;1.00;;;22.70;50.80;;;;;;5075012;28;20445;-92
2022/04/05 02:09:11;;;;;;;1.30;1.20;;;22.70;50.80;;;;;;5074898;28;20533;-93
2022/04/05 02:11:38;;;;;;;1.23;0.93;;;22.70;50.80;;;;;;5074868;28;21060;-92
2022/04/05 02:14:05;;;;;;;1.10;1.00;;;22.70;50.80;;;;;;5074713;28;20559;-93
2022/04/05 02:16:34;;;;;;;1.17;1.07;;;22.60;50.70;;;;;;5074656;28;20947;-92
2022/04/05 02:19:01;;;;;;;1.00;0.90;;;22.60;50.70;;;;;;5074591;28;20469;-94
2022/04/05 02:21:28;;;;;;;1.20;1.10;;;22.60;50.70;;;;;;5075186;28;20900;-92
2022/04/05 02:23:55;;;;;;;1.10;1.00;;;22.80;50.90;;;;;;5076714;28;20528;-92
2022/04/05 02:26:21;;;;;;;1.10;1.00;;;22.60;50.70;;;;;;5077431;28;20532;-92
2022/04/05 02:28:48;;;;;;;1.17;1.07;;;22.60;50.70;;;;;;5074983;28;20460;-92
2022/04/05 02:31:16;;;;;;;1.00;0.90;;;22.60;50.70;;;;;;5074363;28;20943;-92
2022/04/05 02:33:44;;;;;;;1.20;0.90;;;22.60;50.70;;;;;;5074341;28;20482;-92
2022/04/05 02:36:11;;;;;;;1.10;1.00;;;22.60;50.70;;;;;;5073960;28;20467;-92
2022/04/05 02:38:38;;;;;;;1.10;0.87;;;22.60;50.70;;;;;;5074105;28;20440;-93
2022/04/05 02:41:06;;;;;;;0.90;0.80;;;22.60;50.70;;;;;;5074446;28;20448;-93
2022/04/05 02:43:33;;;;;;;1.20;1.10;;;22.70;50.80;;;;;;5074493;28;20785;-93
2022/04/05 02:46:00;;;;;;;1.10;1.00;;;22.60;50.70;;;;;;5074231;28;20608;-92
2022/04/05 02:48:28;;;;;;;1.17;1.07;;;22.60;50.70;;;;;;5074132;28;20432;-92
2022/04/05 02:50:56;;;;;;;1.10;1.00;;;22.60;50.70;;;;;;5074245;28;20441;-93
2022/04/05 02:53:23;;;;;;;1.03;0.93;;;22.60;50.70;;;;;;5074052;28;20530;-93
2022/04/05 02:55:49;;;;;;;1.10;1.00;;;22.60;50.70;;;;;;5074152;28;20445;-93
2022/04/05 02:58:16;;;;;;;1.00;0.90;;;22.60;50.70;;;;;;5073915;28;20468;-93
2022/04/05 03:00:43;;;;;;;1.20;1.10;;;22.60;50.80;;;;;;5073304;28;20445;-93
2022/04/05 03:03:10;;;;;;;1.07;0.93;;;22.60;50.80;;;;;;5073711;28;20863;-93
2022/04/05 03:05:37;;;;;;;2.00;0.87;;;22.60;51.40;;;;;;5073904;28;20525;-93
2022/04/05 03:08:06;;;;;;;1.10;1.00;;;22.60;50.70;;;;;;5073916;28;20448;-93
2022/04/05 03:10:33;;;;;;;1.10;1.00;;;22.60;50.80;;;;;;5073948;28;20464;-93
2022/04/05 03:13:01;;;;;;;1.00;0.73;;;22.50;50.70;;;;;;5074109;28;20512;-93
2022/04/05 03:15:28;;;;;;;1.00;0.90;;;22.60;50.80;;;;;;5073811;28;20456;-93
2022/04/05 03:17:58;;;;;;;1.20;0.97;;;22.50;50.70;;;;;;5073295;28;20563;-93
2022/04/05 03:20:25;;;;;;;1.30;0.90;;;22.60;50.80;;;;;;5073666;28;21018;-93
2022/04/05 03:22:53;;;;;;;1.10;0.90;;;22.60;50.80;;;;;;5074174;28;20459;-93
2022/04/05 03:25:23;;;;;;;1.10;0.97;;;22.60;50.80;;;;;;5073668;28;20440;-93
2022/04/05 03:27:50;;;;;;;1.00;0.80;;;22.60;50.70;;;;;;5073692;28;20499;-93
2022/04/05 03:30:18;;;;;;;1.13;1.00;;;22.60;50.80;;;;;;5073674;28;20475;-93
2022/04/05 03:32:46;;;;;;;1.10;1.00;;;22.60;50.80;;;;;;5074801;28;20444;-93
2022/04/05 03:35:13;;;;;;;1.10;1.00;;;22.60;50.80;;;;;;5073653;28;20485;-93
2022/04/05 03:37:40;;;;;;;1.17;1.07;;;22.60;50.80;;;;;;5073756;28;20456;-93
2022/04/05 03:40:08;;;;;;;1.23;1.03;;;22.50;50.70;;;;;;5073879;28;20953;-93
2022/04/05 03:42:37;;;;;;;1.00;0.83;;;22.50;50.70;;;;;;5072895;28;20443;-93
2022/04/05 03:45:04;;;;;;;1.00;0.87;;;22.60;50.80;;;;;;5073144;28;20545;-91
2022/04/05 03:47:31;;;;;;;1.20;1.00;;;22.50;50.70;;;;;;5074709;28;20445;-92
2022/04/05 03:49:58;;;;;;;1.13;1.00;;;22.50;50.70;;;;;;5077867;28;20445;-91
2022/04/05 03:52:25;;;;;;;1.30;1.20;;;22.50;50.70;;;;;;5077791;28;20540;-91
2022/04/05 03:54:52;;;;;;;1.00;0.80;;;22.50;51.30;;;;;;5077310;28;20570;-88
2022/04/05 03:57:19;;;;;;;1.10;0.90;;;22.70;50.90;;;;;;5077612;28;20477;-89
2022/04/05 03:59:47;;;;;;;1.10;1.00;;;22.50;50.70;;;;;;5077530;28;20441;-88
2022/04/05 04:02:14;;;;;;;1.00;0.80;;;22.50;50.70;;;;;;5077265;28;20531;-89
2022/04/05 04:04:41;;;;;;;1.10;0.70;;;22.50;51.10;;;;;;5077412;28;20441;-89
2022/04/05 04:07:08;;;;;;;1.10;0.90;;;22.50;50.80;;;;;;5077160;28;20445;-89
2022/04/05 04:09:35;;;;;;;1.00;0.80;;;22.50;50.80;;;;;;5077251;28;20452;-89
2022/04/05 04:12:03;;;;;;;1.00;0.90;;;22.50;50.70;;;;;;5076676;28;20449;-88
2022/04/05 04:14:31;;;;;;;1.00;0.80;;;22.50;50.80;;;;;;5076922;28;20869;-88
2022/04/05 04:17:00;;;;;;;1.10;0.80;;;22.40;51.00;;;;;;5076891;28;20531;-89
2022/04/05 04:19:27;;;;;;;1.00;0.90;;;22.40;50.90;;;;;;5076925;28;20918;-89
2022/04/05 04:21:54;;;;;;;2.17;0.80;;;22.50;50.90;;;;;;5076636;28;20536;-90
2022/04/05 04:24:20;;;;;;;1.60;1.00;;;22.50;51.20;;;;;;5076643;28;20447;-89
2022/04/05 04:26:47;;;;;;;2.17;0.90;;;22.50;51.30;;;;;;5076827;28;20460;-92
2022/04/05 04:29:14;;;;;;;3.47;1.20;;;22.50;51.10;;;;;;5077045;28;20445;-92
2022/04/05 04:31:41;;;;;;;1.10;1.00;;;22.50;51.60;;;;;;5077038;28;20840;-92
2022/04/05 04:34:09;;;;;;;1.50;1.07;;;22.50;51.40;;;;;;5076436;28;20575;-92
2022/04/05 04:36:37;;;;;;;1.30;1.20;;;22.50;51.60;;;;;;5076775;28;20794;-92
2022/04/05 04:39:05;;;;;;;1.93;0.80;;;22.50;51.60;;;;;;5077127;28;20958;-93
2022/04/05 04:41:32;;;;;;;1.17;0.97;;;22.50;51.80;;;;;;5078054;28;20448;-92
2022/04/05 04:43:59;;;;;;;1.47;0.80;;;22.50;51.90;;;;;;5079805;28;20535;-92
2022/04/05 04:46:26;;;;;;;2.83;1.23;;;22.50;52.00;;;;;;5078317;28;20448;-90
2022/04/05 04:48:53;;;;;;;1.97;1.00;;;22.50;51.80;;;;;;5076608;28;20451;-92
2022/04/05 04:51:21;;;;;;;2.43;1.00;;;22.50;52.20;;;;;;5077485;28;20445;-93
2022/04/05 04:53:48;;;;;;;1.10;0.80;;;22.50;52.00;;;;;;5059982;28;20504;-92
2022/04/05 04:56:15;;;;;;;1.97;1.17;;;22.50;52.20;;;;;;5076961;28;20455;-92
2022/04/05 04:58:41;;;;;;;1.40;0.90;;;22.50;52.10;;;;;;5081007;28;20445;-91
2022/04/05 05:01:08;;;;;;;2.60;1.10;;;22.50;52.10;;;;;;5083039;28;20441;-92
2022/04/05 05:03:35;;;;;;;1.50;0.73;;;22.50;52.20;;;;;;5084937;28;20480;-92
2022/04/05 05:06:03;;;;;;;1.20;0.90;;;22.50;52.20;;;;;;5084920;28;20480;-90
2022/04/05 05:08:31;;;;;;;2.90;1.00;;;22.50;52.20;;;;;;5080305;28;20492;-92
2022/04/05 05:10:58;;;;;;;1.07;0.93;;;22.50;52.10;;;;;;5076002;28;20573;-92
2022/04/05 05:13:25;;;;;;;2.73;0.90;;;22.50;52.00;;;;;;5076007;28;20969;-92
2022/04/05 05:15:52;;;;;;;1.00;0.80;;;22.50;52.10;;;;;;5075760;28;20488;-92
2022/04/05 05:18:19;;;;;;;2.27;0.80;;;22.40;51.90;;;;;;5075864;28;20476;-92
2022/04/05 05:20:46;;;;;;;1.43;1.00;;;22.50;51.90;;;;;;5076020;28;20455;-92
2022/04/05 05:23:13;;;;;;;1.77;1.00;;;22.40;52.00;;;;;;5077841;28;20449;-91
2022/04/05 05:25:41;;;;;;;1.00;0.80;;;22.40;52.10;;;;;;5077469;28;20523;-92
2022/04/05 05:28:08;;;;;;;1.47;0.90;;;22.40;52.00;;;;;;5076108;28;20906;-90
2022/04/05 05:30:35;;;;;;;1.63;0.90;;;22.40;52.20;;;;;;5075591;28;20491;-90
2022/04/05 05:33:02;;;;;;;1.00;0.80;;;22.40;52.20;;;;;;5075789;28;20986;-90
2022/04/05 05:35:30;;;;;;;1.00;0.77;;;22.40;52.20;;;;;;5075654;28;20485;-89
2022/04/05 05:37:57;;;;;;;1.93;0.90;;;22.40;52.20;;;;;;5075695;28;20448;-91
2022/04/05 05:40:24;;;;;;;1.30;0.90;;;22.40;52.80;;;;;;5075593;28;20445;-92
2022/04/05 05:42:55;;;;;;;1.00;0.80;;;22.40;52.00;;;;;;5075182;28;20448;-91
2022/04/05 05:45:22;;;;;;;1.50;0.90;;;22.40;52.00;;;;;;5075531;28;20498;-90
2022/04/05 05:47:50;;;;;;;1.10;0.90;;;22.40;52.10;;;;;;5075399;28;20528;-91
2022/04/05 05:50:17;;;;;;;1.07;0.90;;;22.40;52.20;;;;;;5075115;28;20451;-91
2022/04/05 05:52:45;;;;;;;2.50;0.90;;;22.40;52.10;;;;;;5075183;28;20451;-91
2022/04/05 05:55:14;;;;;;;1.00;0.73;;;22.40;52.10;;;;;;5074872;28;21032;-91
2022/04/05 05:57:41;;;;;;;1.10;0.80;;;22.40;52.10;;;;;;5075619;28;20465;-91
2022/04/05 06:00:11;;;;;;;2.73;1.00;;;22.40;52.00;;;;;;5074986;28;20451;-92
2022/04/05 06:02:39;;;;;;;1.10;0.83;;;22.40;52.00;;;;;;5075297;28;20437;-92
2022/04/05 06:05:07;;;;;;;1.07;0.80;;;22.40;52.00;;;;;;5074865;28;20445;-91
2022/04/05 06:07:34;;;;;;;1.40;1.10;;;22.40;52.00;;;;;;5074767;28;20532;-91
2022/04/05 06:10:01;;;;;;;1.87;0.87;;;22.40;52.00;;;;;;5073890;28;20927;-91
2022/04/05 06:12:28;;;;;;;5.00;0.90;;;22.40;52.00;;;;;;5074846;28;20968;-90
2022/04/05 06:14:55;;;;;;;1.10;0.70;;;22.40;52.00;;;;;;5076036;28;20503;-90
2022/04/05 06:17:24;;;;;;;1.00;0.80;;;22.40;51.90;;;;;;5074630;28;20444;-88
2022/04/05 06:19:51;;;;;;;0.90;0.70;;;22.40;52.00;;;;;;5074837;28;20520;-89
2022/04/05 06:22:18;;;;;;;1.00;0.80;;;22.40;52.00;;;;;;5074707;28;20468;-86
2022/04/05 06:24:46;;;;;;;2.60;0.90;;;22.40;52.00;;;;;;5074650;28;20437;-85
2022/04/05 06:27:13;;;;;;;2.40;0.80;;;22.40;52.00;;;;;;5074224;28;20464;-88
2022/04/05 06:29:40;;;;;;;1.00;0.80;;;22.40;52.00;;;;;;5074823;28;20447;-96
2022/04/05 06:32:07;;;;;;;0.90;0.80;;;22.40;52.00;;;;;;5075028;28;20460;-91
2022/04/05 06:34:35;;;;;;;1.00;0.80;;;22.30;52.00;;;;;;5076925;28;20797;-88
2022/04/05 06:37:02;;;;;;;1.10;0.80;;;22.40;52.10;;;;;;5074338;28;20441;-88
2022/04/05 06:39:29;;;;;;;1.20;0.87;;;22.40;52.00;;;;;;5074197;28;20459;-96
2022/04/05 06:41:56;;;;;;;1.10;0.80;;;22.40;52.00;;;;;;5075790;28;20437;-95
2022/04/05 06:44:23;;;;;;;1.00;0.80;;;22.30;51.90;;;;;;5075234;28;20459;-88
2022/04/05 06:46:50;;;;;;;1.23;1.07;;;22.40;52.00;;;;;;5075144;28;20441;-95
2022/04/05 06:49:16;;;;;;;1.07;0.70;;;22.40;52.00;;;;;;5078228;28;20535;-89
2022/04/05 06:51:46;;;;;;;1.20;0.90;;;22.40;51.90;;;;;;5072749;28;20445;-87
2022/04/05 06:54:12;;;;;;;1.10;0.90;;;22.40;52.00;;;;;;5073878;28;20456;-89
2022/04/05 06:56:39;;;;;;;1.00;0.80;;;22.30;51.90;;;;;;5073812;28;20456;-89
2022/04/05 06:59:06;;;;;;;1.20;0.80;;;22.30;51.90;;;;;;5074003;28;20514;-91
2022/04/05 07:01:33;;;;;;;1.00;0.77;;;22.40;51.90;;;;;;5074347;28;20532;-90
2022/04/05 07:04:00;;;;;;;1.10;0.93;;;22.40;51.90;;;;;;5073697;28;20474;-88
2022/04/05 07:06:26;;;;;;;1.30;0.80;;;22.40;51.90;;;;;;5073694;28;20480;-90
2022/04/05 07:08:55;;;;;;;1.00;0.87;;;22.30;51.80;;;;;;5073497;28;20558;-87
2022/04/05 07:11:21;;;;;;;1.07;0.83;;;22.30;51.80;;;;;;5073553;28;20447;-88
2022/04/05 07:13:48;;;;;;;1.00;0.90;;;22.30;51.80;;;;;;5073470;28;20935;-88
2022/04/05 07:16:15;;;;;;;1.20;0.80;;;22.30;52.40;;;;;;5073668;28;20843;-89
2022/04/05 07:18:42;;;;;;;1.00;0.90;;;22.30;51.80;;;;;;5073265;28;20481;-87
2022/04/05 07:21:09;;;;;;;1.10;0.80;;;22.30;51.80;;;;;;5073398;28;20883;-89
2022/04/05 07:23:37;;;;;;;1.13;0.97;;;22.30;51.80;;;;;;5073494;28;20445;-84
2022/04/05 07:26:05;;;;;;;0.97;0.77;;;22.40;51.90;;;;;;5074716;28;20441;-83
2022/04/05 07:28:32;;;;;;;1.67;1.10;;;22.30;51.80;;;;;;5077384;28;20437;-91
2022/04/05 07:30:59;;;;;;;1.30;1.10;;;22.50;51.90;;;;;;5073905;28;20812;-88
2022/04/05 07:33:25;;;;;;;1.00;0.90;;;22.30;51.80;;;;;;5073169;28;20444;-86
2022/04/05 07:35:52;;;;;;;1.20;1.03;;;22.40;51.80;;;;;;5073580;28;20571;-84
2022/04/05 07:38:19;;;;;;;1.53;1.00;;;22.30;51.70;;;;;;5073832;28;20971;-88
2022/04/05 07:40:49;;;;;;;1.30;1.13;;;22.30;51.70;;;;;;5075293;28;20531;-92
2022/04/05 07:43:18;;;;;;;1.60;1.00;;;22.30;51.70;;;;;;5073388;28;20487;-91
2022/04/05 07:45:48;;;;;;;1.30;0.80;;;22.30;51.70;;;;;;5073380;28;20455;-93
2022/04/05 07:48:15;;;;;;;1.07;0.80;;;22.30;51.60;;;;;;5073670;28;20506;-89
2022/04/05 07:50:42;;;;;;;1.10;0.90;;;22.30;51.70;;;;;;5073360;28;20453;-87
2022/04/05 07:53:09;;;;;;;1.00;0.90;;;22.30;51.70;;;;;;5073468;28;20919;-91
2022/04/05 07:55:35;;;;;;;1.27;0.90;;;22.30;51.60;;;;;;5073140;28;20511;-87
2022/04/05 07:58:02;;;;;;;2.07;1.10;;;22.40;51.80;;;;;;5073563;28;20467;-89
2022/04/05 08:00:31;;;;;;;1.10;0.90;;;22.30;51.60;;;;;;5073768;28;20544;-88
2022/04/05 08:02:57;;;;;;;1.47;0.90;;;22.30;51.60;;;;;;5067154;28;20820;-87
2022/04/05 08:05:24;;;;;;;1.57;0.90;;;22.30;51.70;;;;;;5063183;28;20459;-87
2022/04/05 08:07:51;;;;;;;1.77;0.90;;;22.30;51.60;;;;;;5072870;28;20471;-87
2022/04/05 08:10:18;;;;;;;1.03;0.90;;;22.40;51.80;;;;;;5072791;28;20440;-85
2022/04/05 08:12:48;;;;;;;1.10;1.00;;;22.30;52.30;;;;;;5072887;28;20447;-86
2022/04/05 08:15:17;;;;;;;1.10;0.80;;;22.30;51.70;;;;;;5072583;28;20477;-87
2022/04/05 08:17:45;;;;;;;1.00;0.90;;;22.40;51.70;;;;;;5072519;28;20476;-88
2022/04/05 08:20:12;;;;;;;1.10;1.00;;;22.30;51.60;;;;;;5072858;28;20449;-87
2022/04/05 08:22:40;;;;;;;2.40;0.80;;;22.30;51.70;;;;;;5072789;28;20805;-87
2022/04/05 08:25:08;;;;;;;1.00;0.80;;;22.30;52.30;;;;;;5066971;28;20448;-85
2022/04/05 08:27:34;;;;;;;1.37;0.90;;;22.30;51.60;;;;;;5064590;28;20469;-86
2022/04/05 08:30:02;;;;;;;1.03;0.90;;;22.40;51.80;;;;;;5072529;28;20540;-90
2022/04/05 08:32:29;;;;;;;1.10;0.90;;;22.30;51.70;;;;;;5072491;28;20449;-86
2022/04/05 08:34:57;;;;;;;1.67;1.10;;;22.30;51.70;;;;;;5075087;28;20534;-85
2022/04/05 08:37:24;;;;;;;1.10;0.90;;;22.40;51.70;;;;;;5076052;28;20535;-86
2022/04/05 08:39:51;;;;;;;1.17;0.90;;;22.30;51.70;;;;;;5076122;28;20539;-87
2022/04/05 08:42:18;;;;;;;1.10;0.90;;;22.30;51.70;;;;;;5076258;28;20447;-86
2022/04/05 08:44:45;;;;;;;1.00;0.80;;;22.30;51.70;;;;;;5076010;28;20476;-87
2022/04/05 08:47:13;;;;;;;1.33;1.23;;;22.30;51.70;;;;;;5076155;28;20432;-86
2022/04/05 08:49:41;;;;;;;1.10;0.93;;;22.30;51.70;;;;;;5075938;28;20444;-87
2022/04/05 08:52:09;;;;;;;1.10;0.90;;;22.30;51.70;;;;;;5075867;28;20939;-86
2022/04/05 08:54:36;;;;;;;1.10;0.90;;;22.40;51.80;;;;;;5076057;28;20447;-88
2022/04/05 08:57:03;;;;;;;1.00;0.70;;;22.30;51.70;;;;;;5072710;28;20503;-87
2022/04/05 08:59:31;;;;;;;1.00;0.80;;;22.30;51.70;;;;;;5065657;28;20448;-86
2022/04/05 09:01:58;;;;;;;1.20;1.10;;;22.30;51.70;;;;;;5076020;28;20445;-86
2022/04/05 09:04:25;;;;;;;1.00;0.80;;;22.40;51.80;;;;;;5075551;28;20453;-85
2022/04/05 09:06:52;;;;;;;1.30;1.00;;;22.40;51.80;;;;;;5075612;28;20448;-87
2022/04/05 09:09:22;;;;;;;1.50;1.00;;;22.30;51.70;;;;;;5075686;28;20811;-85
2022/04/05 09:11:52;;;;;;;1.27;1.03;;;22.30;51.70;;;;;;5075680;28;20878;-87
2022/04/05 09:14:23;;;;;;;1.00;0.80;;;22.30;51.70;;;;;;5075715;28;20441;-84
2022/04/05 09:17:05;;;;;;;1.10;0.87;;;22.40;51.70;;;;;;5075266;28;20496;-85
2022/04/05 09:19:37;;;;;;;1.83;1.20;;;22.40;51.70;;;;;;5075171;28;20531;-86
2022/04/05 09:22:04;;;;;;;1.50;1.00;;;22.40;51.80;;;;;;5075432;28;20452;-85
2022/04/05 09:24:35;;;;;;;1.00;0.87;;;22.40;51.70;;;;;;5057169;28;20508;-85
2022/04/05 09:27:02;;;;;;;1.10;0.90;;;22.40;51.70;;;;;;5058255;28;20472;-87
2022/04/05 09:29:39;;;;;;;1.00;0.80;;;22.40;51.80;;;;;;5076300;28;20448;-93
2022/04/05 09:32:06;;;;;;;1.07;0.97;;;22.40;51.70;;;;;;5079221;22;20488;-94
2022/04/05 09:34:33;;;;;;;1.47;1.00;;;22.30;51.70;;;;;;5075742;28;20445;-92
2022/04/05 09:37:08;;;;;;;1.00;0.80;;;22.40;51.80;;;;;;5075683;28;20584;-92
2022/04/05 09:39:37;;;;;;;1.57;1.00;;;22.40;51.80;;;;;;5075683;28;20478;-91
2022/04/05 09:42:07;;;;;;;1.20;0.90;;;22.40;51.80;;;;;;5075387;28;20449;-94
2022/04/05 09:44:37;;;;;;;1.40;0.80;;;22.40;51.80;;;;;;5091670;28;20441;-96
2022/04/05 09:47:07;;;;;;;1.67;0.90;;;22.40;51.80;;;;;;5080210;28;20459;-96
2022/04/05 09:49:35;;;;;;;1.17;1.00;;;22.40;51.80;;;;;;5076004;28;20445;-91
2022/04/05 09:52:03;;;;;;;1.10;1.00;;;22.40;52.30;;;;;;5075141;28;20452;-92
2022/04/05 09:54:32;;;;;;;0.90;0.80;;;22.40;51.80;;;;;;5075044;28;20448;-91
2022/04/05 09:57:06;;;;;;;1.10;1.00;;;22.40;51.80;;;;;;5075343;28;20493;-93
2022/04/05 09:59:39;;;;;;;1.33;0.80;;;22.40;51.80;;;;;;5076542;28;20448;-95
2022/04/05 10:02:12;;;;;;;1.10;0.90;;;22.40;51.80;;;;;;5076588;28;20479;-92
2022/04/05 10:05:01;;;;;;;1.00;0.90;;;22.40;51.80;;;;;;5076851;28;20444;-93
2022/04/05 10:07:29;;;;;;;1.60;0.90;;;22.30;51.70;;;;;;5075016;28;20899;-93
2022/04/05 10:09:58;;;;;;;1.70;0.90;;;22.30;51.80;;;;;;5075123;28;20452;-93
2022/04/05 10:12:27;;;;;;;1.03;0.90;;;22.40;51.80;;;;;;5074938;28;20509;-92
2022/04/05 10:14:54;;;;;;;1.00;0.80;;;22.50;51.90;;;;;;5075912;28;20436;-91
2022/04/05 10:17:23;;;;;;;1.03;0.90;;;22.30;51.80;;;;;;5075330;28;20477;-91
2022/04/05 10:19:52;;;;;;;1.10;1.00;;;22.30;51.80;;;;;;5074914;28;20444;-92
2022/04/05 10:22:19;;;;;;;1.17;1.07;;;22.40;51.80;;;;;;5075252;28;20448;-92
2022/04/05 10:24:49;;;;;;;1.10;0.90;;;22.40;51.90;;;;;;5075136;28;20453;-92
2022/04/05 10:27:17;;;;;;;1.10;1.00;;;22.40;51.90;;;;;;5074520;28;20483;-92
2022/04/05 10:29:46;;;;;;;1.57;0.83;;;22.30;51.80;;;;;;5074637;28;20445;-92
2022/04/05 10:32:24;;;;;;;1.10;0.90;;;22.40;51.80;;;;;;5074045;28;20477;-89
2022/04/05 10:34:57;;;;;;;1.00;0.90;;;22.40;51.90;;;;;;5075315;28;20503;-91
2022/04/05 10:37:32;;;;;;;1.20;1.00;;;22.30;51.80;;;;;;5074394;28;20496;-93
2022/04/05 10:40:16;;;;;;;1.50;1.10;;;22.40;51.90;;;;;;5076983;28;20437;-95
2022/04/05 10:42:46;;;;;;;1.33;1.07;;;22.40;51.80;;;;;;5074372;28;20448;-91
2022/04/05 10:45:17;;;;;;;1.03;0.90;;;22.30;51.70;;;;;;5075441;28;20467;-94
2022/04/05 10:48:16;;;;;;;1.27;1.03;;;22.40;51.90;;;;;;5074511;28;20448;-91
2022/04/05 10:50:44;;;;;;;1.10;0.90;;;22.40;51.80;;;;;;5074311;28;20433;-89
2022/04/05 10:53:18;;;;;;;1.03;0.93;;;22.30;51.80;;;;;;5074037;28;20451;-93
2022/04/05 10:56:16;;;;;;;1.07;0.90;;;22.40;51.90;;;;;;5073904;28;20586;-92
2022/04/05 10:59:18;;;;;;;1.00;0.77;;;22.40;51.80;;;;;;5062512;28;20453;-89
2022/04/05 11:01:46;;;;;;;1.10;0.80;;;22.40;51.90;;;;;;5036469;28;20436;-89
2022/04/05 11:04:32;;;;;;;1.40;1.23;;;22.30;51.90;;;;;;5056161;28;20468;-90
2022/04/05 11:07:14;;;;;;;1.20;1.10;;;22.40;51.90;;;;;;5055617;28;20429;-96
2022/04/05 11:09:44;;;;;;;1.20;0.80;;;22.40;52.00;;;;;;5061529;28;20487;-96
2022/04/05 11:12:12;;;;;;;1.03;0.93;;;22.40;52.00;;;;;;5061738;28;20441;-90
2022/04/05 11:41:40;;;;;;;2.40;1.00;;;22.30;52.00;;;;;;5017915;28;20462;-92
2022/04/05 11:44:07;;;;;;;1.10;0.90;;;22.30;52.00;;;;;;5014144;28;20447;-89
2022/04/05 11:46:37;;;;;;;1.27;0.97;;;22.40;52.10;;;;;;5025604;28;20456;-89
2022/04/05 11:49:08;;;;;;;1.20;1.00;;;22.30;52.00;;;;;;5013521;28;20479;-91
2022/04/05 11:51:37;;;;;;;1.23;1.00;;;22.40;52.00;;;;;;5013462;28;20451;-90
2022/04/05 12:17:30;;;;;;;1.30;1.13;;;22.30;52.30;;;;;;4874910;29;20520;-85
2022/04/05 12:19:57;;;;;;;1.13;0.90;;;22.30;52.40;;;;;;4934656;28;20454;-89
2022/04/05 12:22:32;;;;;;;1.20;1.00;;;22.30;52.40;;;;;;4995041;28;20445;-88
2022/04/05 12:25:00;;;;;;;1.10;1.00;;;22.30;52.40;;;;;;4995115;28;20436;-87
2022/04/05 12:27:28;;;;;;;1.10;0.90;;;22.30;53.00;;;;;;4995009;28;20893;-87
2022/04/05 12:29:58;;;;;;;1.10;1.00;;;22.30;52.50;;;;;;4994901;28;20440;-87
2022/04/05 12:32:25;;;;;;;1.03;0.90;;;22.40;52.50;;;;;;4994978;28;20802;-85
2022/04/05 12:34:53;;;;;;;1.00;0.80;;;22.30;52.40;;;;;;4995112;28;20441;-87
2022/04/05 12:37:20;;;;;;;1.00;0.87;;;22.40;52.40;;;;;;4994618;28;20488;-87
2022/04/05 12:39:50;;;;;;;1.00;0.90;;;22.40;52.40;;;;;;4996548;28;20496;-88
2022/04/05 12:42:19;;;;;;;1.20;1.10;;;22.40;52.40;;;;;;5014575;28;20439;-87
2022/04/05 12:44:48;;;;;;;2.07;1.00;;;22.30;52.40;;;;;;5048783;28;20853;-87
2022/04/05 12:47:16;;;;;;;1.30;1.00;;;22.40;52.50;;;;;;5075946;28;21013;-89
2022/04/05 12:49:44;;;;;;;1.20;0.90;;;22.40;52.50;;;;;;5076617;28;20618;-91
2022/04/05 12:52:15;;;;;;;1.20;1.00;;;22.30;52.40;;;;;;5076148;28;20433;-90
2022/04/05 12:54:47;;;;;;;1.20;1.10;;;22.40;52.40;;;;;;5077069;28;20426;-89
2022/04/05 12:57:20;;;;;;;3.30;1.10;;;22.50;52.40;;;;;;5075815;28;20492;-89
2022/04/05 12:59:48;;;;;;;1.30;1.00;;;22.40;52.30;;;;;;5076047;28;20455;-86
2022/04/05 13:02:18;;;;;;;1.10;1.00;;;22.30;52.40;;;;;;5075488;28;20925;-84
2022/04/05 13:04:45;;;;;;;1.10;0.97;;;22.30;52.30;;;;;;5075798;28;20448;-84
2022/04/05 13:07:13;;;;;;;2.00;0.93;;;22.40;52.40;;;;;;5075660;28;20445;-85
2022/04/05 13:09:40;;;;;;;1.50;0.90;;;22.40;52.30;;;;;;5075509;28;20452;-86
2022/04/05 13:12:11;;;;;;;1.67;0.83;;;22.40;52.20;;;;;;5075463;28;20965;-86
2022/04/05 13:14:39;;;;;;;1.03;0.87;;;22.40;52.10;;;;;;5075688;28;20475;-85
2022/04/05 13:17:08;;;;;;;1.13;1.03;;;22.40;52.10;;;;;;5070975;28;20492;-86
2022/04/05 13:19:35;;;;;;;1.57;0.93;;;22.40;52.10;;;;;;5065522;28;20449;-84
2022/04/05 13:22:02;;;;;;;1.00;0.87;;;22.40;52.00;;;;;;5055263;28;20964;-86
2022/04/05 13:24:41;;;;;;;1.50;0.90;;;22.40;52.00;;;;;;5055339;28;20441;-85
2022/04/05 13:27:08;;;;;;;1.00;0.90;;;22.40;52.00;;;;;;5055190;28;20817;-86
2022/04/05 13:29:36;;;;;;;1.20;1.00;;;22.40;52.00;;;;;;5054967;28;20444;-86
2022/04/05 13:32:05;;;;;;;1.07;0.97;;;22.40;52.00;;;;;;5055162;28;20503;-90
2022/04/05 13:34:34;;;;;;;1.20;1.00;;;22.40;52.00;;;;;;5055283;28;20526;-84
2022/04/05 13:37:01;;;;;;;1.20;0.87;;;22.40;52.00;;;;;;5054948;28;20485;-83
2022/04/05 13:39:32;;;;;;;1.07;0.90;;;22.40;52.00;;;;;;5054900;28;20442;-83
2022/04/05 13:42:00;;;;;;;1.10;0.90;;;22.40;52.00;;;;;;5054964;28;20995;-83
2022/04/05 13:44:28;;;;;;;1.00;0.80;;;22.40;51.90;;;;;;5054671;28;20449;-82